Time;durP1;ratioP1;P1;durP2;ratioP2;P2;SDS_P1;SDS_P2;PMS_P1;PMS_P2;Temp;Humidity;BMP_temperature;BMP_pressure;BME280_temperature;BME280_humidity;BME280_pressure;Samples;Min_cycle;Max_cycle;Signal;HPM_P1;HPM_P2
2022/06/15 00:01:55;;;;;;;10.73;7.30;;;;;;;16.99;nan;99455.53;4987022;28;20938;-73
2022/06/15 00:04:21;;;;;;;8.30;7.50;;;;;;;16.88;nan;99461.00;4987181;28;20198;-72
2022/06/15 00:06:46;;;;;;;8.47;6.60;;;;;;;16.88;nan;99462.81;4988497;28;20182;-72
2022/06/15 00:09:12;;;;;;;6.93;6.23;;;;;;;16.89;nan;99462.66;4988185;28;20586;-72
2022/06/15 00:11:40;;;;;;;7.80;7.00;;;;;;;16.92;nan;99464.19;4989020;28;20214;-73
2022/06/15 00:14:16;;;;;;;8.30;6.20;;;;;;;16.96;nan;99449.69;4988302;28;20193;-73
2022/06/15 00:16:42;;;;;;;6.77;6.17;;;;;;;16.99;nan;99452.88;4988152;28;21011;-72
2022/06/15 00:19:08;;;;;;;11.43;7.20;;;;;;;17.01;nan;99447.41;4988022;28;20512;-72
2022/06/15 00:21:34;;;;;;;8.67;7.33;;;;;;;16.99;nan;99444.09;4988629;28;20268;-72
2022/06/15 00:24:00;;;;;;;9.27;7.10;;;;;;;16.94;nan;99443.69;4988262;28;20560;-73
2022/06/15 00:26:25;;;;;;;9.73;7.33;;;;;;;16.85;nan;99442.72;4989050;28;20207;-73
2022/06/15 00:28:51;;;;;;;7.50;6.70;;;;;;;16.80;nan;99442.31;4987823;28;20202;-73
2022/06/15 00:31:18;;;;;;;12.70;7.63;;;;;;;16.77;nan;99446.06;4988946;28;20450;-72
2022/06/15 00:33:44;;;;;;;7.20;6.50;;;;;;;16.74;nan;99458.72;4988536;28;20769;-72
2022/06/15 00:36:13;;;;;;;5.97;5.47;;;;;;;16.58;nan;99456.66;4987601;28;20573;-73
2022/06/15 00:38:43;;;;;;;7.30;6.30;;;;;;;16.38;nan;99451.34;4988127;28;20446;-72
2022/06/15 00:41:11;;;;;;;8.53;6.30;;;;;;;16.27;nan;99458.59;4986397;28;20794;-73
2022/06/15 00:43:43;;;;;;;14.20;7.00;;;;;;;16.13;nan;99450.06;4987814;28;20463;-73
2022/06/15 00:46:14;;;;;;;7.37;6.67;;;;;;;16.09;nan;99453.97;4987889;28;20446;-73
2022/06/15 00:48:41;;;;;;;6.10;5.50;;;;;;;;;;4986009;28;20451;-73
2022/06/15 00:51:07;;;;;;;6.87;6.17;;;;;;;16.23;nan;99451.88;4986305;28;20474;-72
2022/06/15 00:53:33;;;;;;;7.10;6.30;;;;;;;16.17;nan;99455.09;4987874;28;20821;-73
2022/06/15 00:55:58;;;;;;;6.80;6.10;;;;;;;16.09;nan;99461.91;4986557;28;20238;-73
2022/06/15 00:58:24;;;;;;;6.77;6.17;;;;;;;16.07;nan;99455.91;4986652;28;20466;-73
2022/06/15 01:00:53;;;;;;;6.63;6.03;;;;;;;15.98;nan;99458.53;4985658;28;20263;-73
2022/06/15 01:03:20;;;;;;;6.60;6.00;;;;;;;15.90;nan;99461.84;4985766;28;20214;-73
2022/06/15 01:05:58;;;;;;;6.07;5.57;;;;;;;15.86;nan;99455.16;4987253;28;20462;-73
2022/06/15 01:08:30;;;;;;;6.63;5.90;;;;;;;15.77;nan;99463.91;4985823;28;20852;-73
2022/06/15 01:11:02;;;;;;;6.73;6.00;;;;;;;15.78;nan;99463.78;4985691;28;20474;-73
2022/06/15 01:13:34;;;;;;;9.53;6.53;;;;;;;15.88;nan;99461.16;4987597;28;20461;-73
2022/06/15 01:16:12;;;;;;;8.13;6.40;;;;;;;15.97;nan;99454.22;4987126;28;20540;-73
2022/06/15 01:19:04;;;;;;;7.00;6.30;;;;;;;16.03;nan;99454.50;4987050;28;21047;-73
2022/06/15 01:21:32;;;;;;;6.63;6.03;;;;;;;16.06;nan;99456.88;4985701;28;20936;-73
2022/06/15 01:24:28;;;;;;;11.60;6.47;;;;;;;16.04;nan;99456.19;4982793;28;20505;-72
2022/06/15 01:26:56;;;;;;;8.53;6.53;;;;;;;16.05;nan;99455.22;4980840;28;20451;-73
2022/06/15 01:30:03;;;;;;;7.57;6.80;;;;;;;16.06;nan;99458.69;4987191;28;20980;-72
2022/06/15 01:32:52;;;;;;;7.67;6.50;;;;;;;16.01;nan;99448.50;4926088;29;20456;-73
2022/06/15 01:35:54;;;;;;;6.80;6.20;;;;;;;15.97;nan;99446.28;4926516;29;20462;-72
2022/06/15 01:38:27;;;;;;;9.57;6.70;;;;;;;15.87;nan;99447.06;4980209;28;20466;-73
2022/06/15 01:41:13;;;;;;;6.33;5.73;;;;;;;15.77;nan;99448.88;4986597;28;20611;-73
2022/06/15 01:43:47;;;;;;;7.10;6.40;;;;;;;15.74;nan;99445.63;4966920;28;20546;-73
2022/06/15 01:46:14;;;;;;;10.70;7.63;;;;;;;15.69;nan;99452.19;4947176;29;20498;-72
2022/06/15 01:48:40;;;;;;;7.23;6.53;;;;;;;15.64;nan;99449.06;4946549;29;20887;-72
2022/06/15 01:51:12;;;;;;;9.65;7.93;;;;;;;15.64;nan;99451.72;4952498;28;20538;-72
2022/06/15 01:53:46;;;;;;;13.23;7.30;;;;;;;15.60;nan;99457.41;4985671;28;20239;-72
2022/06/15 01:56:24;;;;;;;10.60;8.43;;;;;;;15.54;nan;99456.13;4985480;28;20639;-72
2022/06/15 01:58:59;;;;;;;8.40;7.03;;;;;;;15.57;nan;99460.31;4982105;28;20806;-72
2022/06/15 02:01:37;;;;;;;6.75;5.95;;;;;;;15.62;nan;99455.47;4985241;28;21194;-72
2022/06/15 02:04:31;;;;;;;5.28;4.80;;;;;;;15.64;nan;99453.53;4982138;28;20504;-72
2022/06/15 02:07:02;;;;;;;5.10;4.70;;;;;;;15.46;nan;99454.13;4990463;28;20274;-72
2022/06/15 02:09:48;;;;;;;4.93;4.47;;;;;;;15.36;nan;99450.59;4993305;28;20276;-72
2022/06/15 02:12:20;;;;;;;6.70;5.23;;;;;;;15.34;nan;99447.28;4993254;28;20467;-72
2022/06/15 02:14:52;;;;;;;5.40;4.90;;;;;;;15.23;nan;99453.47;4990222;28;20515;-72
2022/06/15 02:17:23;;;;;;;5.97;5.45;;;;;;;15.14;nan;99446.31;4981873;28;20515;-73
2022/06/15 02:19:55;;;;;;;4.97;4.33;;;;;;;15.08;nan;99444.19;4983303;28;20392;-72
2022/06/15 02:22:27;;;;;;;5.40;4.90;;;;;;;14.99;nan;99455.56;4985244;28;21168;-72
2022/06/15 02:24:55;;;;;;;7.47;5.53;;;;;;;14.88;nan;99447.69;4985400;28;20220;-72
2022/06/15 02:27:26;;;;;;;7.93;5.22;;;;;;;14.84;nan;99447.09;4986073;28;20234;-73
2022/06/15 02:29:59;;;;;;;5.47;5.07;;;;;;;14.79;nan;99446.66;4990811;28;20304;-72
2022/06/15 02:32:25;;;;;;;5.78;5.10;;;;;;;14.71;nan;99442.00;4993462;28;20210;-71
2022/06/15 02:34:50;;;;;;;8.20;6.60;;;;;;;;;;4992383;28;20210;-71
2022/06/15 02:37:16;;;;;;;7.80;5.80;;;;;;;;;;4993686;28;20275;-71
2022/06/15 02:39:42;;;;;;;7.63;6.90;;;;;;;;;;4990560;28;20351;-72
2022/06/15 02:42:22;;;;;;;6.60;5.97;;;;;;;;;;4986357;23;20546;-68
2022/06/15 02:44:54;;;;;;;5.32;4.82;;;;;;;;;;4957640;28;20633;-70
2022/06/15 02:47:20;;;;;;;6.43;5.97;;;;;;;;;;4950420;28;20203;-70
2022/06/15 02:49:50;;;;;;;6.32;5.72;;;;;;;;;;4981128;28;20259;-70
2022/06/15 02:52:17;;;;;;;6.35;5.75;;;;;;;;;;4956837;28;20246;-71
2022/06/15 02:54:45;;;;;;;6.28;5.65;;;;;;;;;;4944754;29;20836;-70
2022/06/15 02:57:18;;;;;;;6.82;5.15;;;;;;;;;;4928445;29;20233;-70
2022/06/15 02:59:45;;;;;;;8.90;7.10;;;;;;;;;;4925873;29;20224;-70
2022/06/15 03:02:14;;;;;;;7.00;6.30;;;;;;;;;;4926025;29;20488;-70
2022/06/15 03:04:42;;;;;;;6.88;6.22;;;;;;;;;;4936890;29;20686;-70
2022/06/15 03:07:07;;;;;;;7.00;6.40;;;;;;;;;;4929937;29;20447;-70
2022/06/15 03:09:32;;;;;;;6.53;5.93;;;;;;;;;;4926343;29;20222;-70
2022/06/15 03:11:58;;;;;;;7.50;6.90;;;;;;;;;;4930195;29;20227;-70
2022/06/15 03:14:34;;;;;;;10.25;6.82;;;;;;;;;;4944917;29;20212;-70
2022/06/15 03:17:01;;;;;;;7.55;6.78;;;;;;;;;;4943397;28;20248;-70
2022/06/15 03:19:37;;;;;;;7.32;6.63;;;;;;;;;;4947058;29;20206;-70
2022/06/15 03:22:03;;;;;;;6.60;6.00;;;;;;;;;;4929544;29;20230;-74
2022/06/15 03:24:31;;;;;;;8.73;6.63;;;;;;;15.04;nan;99450.69;4937564;29;20612;-73
2022/06/15 03:26:57;;;;;;;6.70;5.47;;;;;;;15.05;nan;99453.22;4934379;29;20744;-77
2022/06/15 03:29:24;;;;;;;7.60;5.60;;;;;;;15.08;nan;99453.94;4929612;29;20208;-73
2022/06/15 03:31:52;;;;;;;9.30;6.45;;;;;;;15.05;nan;99449.75;4930792;29;20230;-73
2022/06/15 03:34:20;;;;;;;6.18;5.57;;;;;;;15.02;nan;99447.38;4948279;29;20503;-73
2022/06/15 03:36:59;;;;;;;6.38;5.78;;;;;;;14.98;nan;99445.94;4945795;29;20586;-73
2022/06/15 03:39:37;;;;;;;7.30;6.60;;;;;;;14.95;nan;99448.84;4948133;29;20307;-77
2022/06/15 03:42:17;;;;;;;6.68;5.65;;;;;;;14.89;nan;99449.38;4909679;29;20736;-73
2022/06/15 03:44:44;;;;;;;5.90;5.20;;;;;;;14.82;nan;99449.03;4926998;29;20573;-72
2022/06/15 03:47:19;;;;;;;7.55;5.63;;;;;;;14.77;nan;99453.88;4932314;29;20195;-74
2022/06/15 03:49:51;;;;;;;6.82;6.10;;;;;;;14.75;nan;99456.66;4945232;29;20204;-72
2022/06/15 03:52:20;;;;;;;7.20;6.47;;;;;;;14.74;nan;99452.34;4943442;29;20257;-72
2022/06/15 03:54:46;;;;;;;5.82;4.95;;;;;;;14.76;nan;99446.91;4928136;29;20717;-72
2022/06/15 03:57:13;;;;;;;6.70;5.30;;;;;;;14.77;nan;99446.78;4939884;29;20295;-72
2022/06/15 03:59:39;;;;;;;6.25;5.65;;;;;;;14.80;nan;99451.81;4948970;29;20197;-75
2022/06/15 04:02:25;;;;;;;4.97;4.47;;;;;;;14.83;nan;99451.56;4910504;29;20304;-72
2022/06/15 04:04:50;;;;;;;7.03;6.40;;;;;;;14.87;nan;99453.94;4925368;29;20287;-72
2022/06/15 04:10:01;;;;;;;4.93;4.50;;;;;;;14.71;nan;99465.78;4944926;29;20312;-77
2022/06/15 04:12:29;;;;;;;5.32;4.78;;;;;;;14.57;nan;99458.19;4943325;29;20234;-72
2022/06/15 04:14:55;;;;;;;6.10;5.20;;;;;;;14.50;nan;99464.88;4927911;29;20203;-72
2022/06/15 04:17:30;;;;;;;7.47;4.80;;;;;;;14.47;nan;99470.44;4927880;29;20314;-74
2022/06/15 04:23:02;;;;;;;6.97;5.05;;;;;;;14.51;nan;99471.88;4947832;29;20210;-74
2022/06/15 04:25:30;;;;;;;5.85;5.13;;;;;;;14.55;nan;99476.78;4946014;29;20565;-72
2022/06/15 04:27:58;;;;;;;5.80;5.30;;;;;;;14.59;nan;99472.09;4927941;29;20204;-72
2022/06/15 04:30:24;;;;;;;5.57;5.07;;;;;;;14.64;nan;99472.56;4945920;28;20292;-76
2022/06/15 04:32:52;;;;;;;8.20;6.60;;;;;;;14.74;nan;99483.22;4941091;29;20972;-72
2022/06/15 04:35:20;;;;;;;6.10;5.50;;;;;;;14.86;nan;99474.28;4928436;29;20282;-72
2022/06/15 04:37:47;;;;;;;7.55;6.35;;;;;;;15.00;nan;99475.75;4928205;29;20227;-78
2022/06/15 04:40:21;;;;;;;6.70;6.10;;;;;;;15.15;nan;99476.25;4929584;29;20453;-77
2022/06/15 04:42:49;;;;;;;7.45;6.55;;;;;;;15.32;nan;99480.97;4947256;29;20584;-76
2022/06/15 04:45:15;;;;;;;6.40;5.80;;;;;;;15.56;nan;99485.13;4947452;29;20223;-74
2022/06/15 04:47:55;;;;;;;8.50;6.80;;;;;;;15.97;nan;99478.88;4925620;29;20204;-73
2022/06/15 04:50:23;;;;;;;8.68;5.93;;;;;;;16.50;nan;99481.22;4943254;29;20543;-72
2022/06/15 04:52:50;;;;;;;5.90;5.30;;;;;;;17.07;nan;99473.41;4947179;29;20207;-75
2022/06/15 04:55:18;;;;;;;5.17;4.67;;;;;;;17.65;nan;99477.69;4947728;29;20460;-74
2022/06/15 04:57:45;;;;;;;5.30;4.50;;;;;;;18.22;nan;99474.91;4928509;29;20220;-72
2022/06/15 05:00:17;;;;;;;5.27;4.50;;;;;;;18.64;nan;99475.16;4929214;29;21129;-76
2022/06/15 05:02:44;;;;;;;4.90;4.30;;;;;;;18.93;nan;99476.75;4927501;29;20443;-70
2022/06/15 05:05:10;;;;;;;6.03;4.90;;;;;;;19.33;nan;99480.69;4948326;29;20456;-69
2022/06/15 05:07:36;;;;;;;6.07;5.50;;;;;;;19.67;nan;99476.25;4970325;28;20497;-70
2022/06/15 05:10:03;;;;;;;6.80;6.10;;;;;;;19.92;nan;99481.69;4985892;28;20543;-70
2022/06/15 05:12:30;;;;;;;7.67;6.77;;;;;;;20.12;nan;99476.97;4972692;28;20268;-70
2022/06/15 05:14:57;;;;;;;6.10;5.30;;;;;;;20.30;nan;99474.97;4966154;28;20747;-70
2022/06/15 05:17:24;;;;;;;5.20;4.70;;;;;;;20.64;nan;99482.09;4968788;28;20260;-70
2022/06/15 05:19:50;;;;;;;3.63;3.20;;;;;;;20.97;nan;99477.56;4973265;28;20456;-71
2022/06/15 05:22:17;;;;;;;4.17;3.60;;;;;;;21.25;nan;99471.03;4985130;28;20728;-70
2022/06/15 05:24:43;;;;;;;4.17;3.80;;;;;;;21.58;nan;99470.00;4971798;28;20455;-71
2022/06/15 05:27:11;;;;;;;3.93;3.30;;;;;;;21.72;nan;99475.63;4981856;28;20515;-70
2022/06/15 05:29:39;;;;;;;3.87;3.57;;;;;;;21.79;nan;99466.75;4965827;28;20812;-70
2022/06/15 05:32:09;;;;;;;3.20;2.40;;;;;;;22.05;nan;99482.50;4974794;28;20815;-70
2022/06/15 05:34:36;;;;;;;3.50;3.20;;;;;;;22.37;nan;99477.19;4986606;28;20941;-70
2022/06/15 05:37:04;;;;;;;4.60;4.10;;;;;;;22.69;nan;99473.44;4968698;28;20900;-70
2022/06/15 05:39:33;;;;;;;4.63;3.53;;;;;;;23.08;nan;99473.28;4969161;28;20784;-70
2022/06/15 05:41:59;;;;;;;3.40;3.10;;;;;;;23.40;nan;99476.69;4984821;28;20557;-70
2022/06/15 05:46:57;;;;;;;3.50;3.20;;;;;;;23.94;nan;99471.03;4974661;28;20301;-70
2022/06/15 05:49:40;;;;;;;4.67;3.30;;;;;;;24.26;nan;99474.31;4947006;29;20583;-70
2022/06/15 05:52:08;;;;;;;3.43;3.13;;;;;;;24.51;nan;99470.25;4972628;28;20584;-70
2022/06/15 05:54:35;;;;;;;4.83;3.80;;;;;;;24.82;nan;99473.69;4984506;28;20450;-70
2022/06/15 05:57:01;;;;;;;4.93;4.20;;;;;;;25.11;nan;99476.19;4971875;28;20494;-71
2022/06/15 05:59:27;;;;;;;3.77;3.40;;;;;;;25.33;nan;99473.47;4966702;28;20201;-71
2022/06/15 06:01:52;;;;;;;5.33;3.60;;;;;;;25.38;nan;99479.06;4967090;28;20258;-71
2022/06/15 06:04:20;;;;;;;4.40;3.30;;;;;;;25.33;nan;99479.69;4974440;28;20260;-70
2022/06/15 06:06:48;;;;;;;5.70;4.33;;;;;;;25.49;nan;99480.38;4973600;28;20470;-70
2022/06/15 06:09:13;;;;;;;4.30;3.33;;;;;;;25.58;nan;99476.53;4982383;28;20458;-71
2022/06/15 06:11:39;;;;;;;3.90;3.47;;;;;;;25.71;nan;99471.22;4983186;28;20471;-71
2022/06/15 06:14:04;;;;;;;4.53;3.13;;;;;;;25.94;nan;99475.50;4965674;28;20470;-70
2022/06/15 06:16:30;;;;;;;3.83;3.60;;;;;;;26.24;nan;99470.63;4966286;28;20225;-70
2022/06/15 06:18:55;;;;;;;8.13;3.53;;;;;;;26.55;nan;99466.59;4966056;28;20251;-71
2022/06/15 06:21:21;;;;;;;3.93;3.60;;;;;;;26.81;nan;99463.09;4982313;28;20203;-70
2022/06/15 06:23:47;;;;;;;8.20;3.90;;;;;;;26.97;nan;99462.69;4982581;28;20201;-70
2022/06/15 06:26:23;;;;;;;3.90;3.60;;;;;;;27.02;nan;99457.50;4966224;28;20222;-70
2022/06/15 06:28:49;;;;;;;5.37;4.13;;;;;;;27.19;nan;99457.91;4966513;28;20211;-71
2022/06/15 06:31:15;;;;;;;8.93;4.00;;;;;;;27.38;nan;99456.22;4966267;28;20460;-69
2022/06/15 06:33:40;;;;;;;8.10;4.27;;;;;;;27.59;nan;99472.16;4983743;28;21174;-69
2022/06/15 06:36:29;;;;;;;8.10;3.70;;;;;;;27.85;nan;99467.75;4983709;28;20608;-69
2022/06/15 06:38:56;;;;;;;3.93;3.53;;;;;;;27.90;nan;99467.13;4985820;28;20185;-69
2022/06/15 06:41:24;;;;;;;4.30;3.90;;;;;;;28.10;nan;99467.03;4970426;28;20464;-68
2022/06/15 06:43:49;;;;;;;4.83;4.43;;;;;;;28.29;nan;99468.78;4968415;28;20942;-69
2022/06/15 06:46:16;;;;;;;5.37;4.20;;;;;;;28.42;nan;99473.31;4977339;28;20438;-71
2022/06/15 06:48:41;;;;;;;4.40;4.00;;;;;;;28.48;nan;99466.22;4974588;28;20713;-70
2022/06/15 06:51:07;;;;;;;4.10;3.50;;;;;;;28.50;nan;99464.16;4985761;28;20529;-71
2022/06/15 06:53:32;;;;;;;4.57;3.80;;;;;;;28.66;nan;99469.03;4972288;28;20587;-71
2022/06/15 06:56:05;;;;;;;11.40;4.17;;;;;;;28.85;nan;99462.63;4969946;28;20224;-71
2022/06/15 06:58:31;;;;;;;4.93;3.93;;;;;;;29.14;nan;99457.66;4970366;28;20220;-71
2022/06/15 07:00:56;;;;;;;6.80;4.20;;;;;;;29.40;nan;99466.53;4979477;28;20478;-71
2022/06/15 07:03:22;;;;;;;5.17;3.90;;;;;;;29.68;nan;99461.47;4989714;28;20252;-71
2022/06/15 07:05:48;;;;;;;5.40;3.93;;;;;;;29.83;nan;99463.78;4971774;28;20216;-69
2022/06/15 07:08:14;;;;;;;5.40;4.90;;;;;;;29.97;nan;99459.88;4969453;28;20212;-69
2022/06/15 07:10:40;;;;;;;10.00;5.00;;;;;;;30.14;nan;99460.06;4970210;28;20200;-69
2022/06/15 07:13:06;;;;;;;5.27;3.90;;;;;;;30.34;nan;99464.41;4979672;28;20656;-69
2022/06/15 07:15:31;;;;;;;4.87;3.70;;;;;;;30.29;nan;99461.56;4985933;28;20498;-69
2022/06/15 07:17:58;;;;;;;4.03;3.73;;;;;;;30.32;nan;99464.63;4968954;28;20472;-69
2022/06/15 07:20:24;;;;;;;5.90;4.03;;;;;;;30.31;nan;99465.69;4973676;28;20184;-69
2022/06/15 07:22:50;;;;;;;5.30;3.80;;;;;;;30.32;nan;99461.09;4989114;28;20487;-69
2022/06/15 07:25:15;;;;;;;4.57;3.83;;;;;;;30.48;nan;99465.88;4977081;28;20521;-69
2022/06/15 07:27:41;;;;;;;3.80;3.50;;;;;;;30.69;nan;99469.13;4969895;28;20193;-69
2022/06/15 07:30:13;;;;;;;4.30;3.90;;;;;;;30.76;nan;99469.81;4986276;28;20179;-69
2022/06/15 07:32:40;;;;;;;4.40;4.00;;;;;;;30.83;nan;99457.84;4981413;28;20177;-69
2022/06/15 07:35:06;;;;;;;6.07;4.50;;;;;;;30.79;nan;99464.78;4969402;28;20519;-69
2022/06/15 07:37:32;;;;;;;6.60;5.00;;;;;;;30.53;nan;99470.59;4969209;28;20496;-69
2022/06/15 07:39:58;;;;;;;5.03;4.63;;;;;;;30.74;nan;99463.81;4968705;28;20470;-69
2022/06/15 07:42:23;;;;;;;3.90;3.60;;;;;;;31.06;nan;99465.19;4988516;28;20276;-69
2022/06/15 07:44:49;;;;;;;4.77;4.37;;;;;;;31.18;nan;99465.19;4981829;28;20754;-69
2022/06/15 07:49:59;;;;;;;8.00;5.03;;;;;;;30.87;nan;99469.06;4972534;28;20490;-69
2022/06/15 07:52:29;;;;;;;4.60;4.20;;;;;;;30.80;nan;99468.31;4970905;28;20483;-69
2022/06/15 07:54:56;;;;;;;7.70;4.57;;;;;;;31.01;nan;99470.50;4988550;28;20514;-69
2022/06/15 07:57:22;;;;;;;6.40;4.00;;;;;;;31.16;nan;99463.78;4971031;28;20499;-69
2022/06/15 07:59:48;;;;;;;4.67;3.90;;;;;;;31.31;nan;99461.41;4968454;28;20874;-69
2022/06/15 08:02:14;;;;;;;4.40;4.00;;;;;;;31.43;nan;99454.13;4968963;28;20435;-69
2022/06/15 08:04:40;;;;;;;4.40;4.10;;;;;;;31.51;nan;99452.91;4971452;28;20432;-69
2022/06/15 08:07:08;;;;;;;5.93;3.63;;;;;;;31.46;nan;99450.09;4980041;28;20488;-69
2022/06/15 08:09:34;;;;;;;4.23;3.83;;;;;;;31.41;nan;99456.25;4977958;28;20189;-69
2022/06/15 08:12:11;;;;;;;5.23;4.17;;;;;;;31.11;nan;99450.09;4968102;28;20506;-69
2022/06/15 08:14:41;;;;;;;4.70;3.60;;;;;;;30.67;nan;99453.06;4986494;28;20199;-69
2022/06/15 08:17:10;;;;;;;5.53;4.23;;;;;;;30.52;nan;99456.22;4972505;28;21108;-69
2022/06/15 08:19:39;;;;;;;5.27;3.77;;;;;;;30.46;nan;99459.88;4968771;28;20479;-69
2022/06/15 08:22:07;;;;;;;4.20;3.70;;;;;;;30.49;nan;99459.41;4968400;28;20997;-69
2022/06/15 08:24:32;;;;;;;13.93;3.80;;;;;;;30.34;nan;99457.13;4985352;28;20431;-69
2022/06/15 08:26:58;;;;;;;5.07;4.20;;;;;;;30.57;nan;99453.66;4978095;28;20780;-69
2022/06/15 08:29:23;;;;;;;6.93;4.13;;;;;;;30.86;nan;99456.56;4987623;28;20180;-69
2022/06/15 08:31:49;;;;;;;4.30;3.83;;;;;;;31.04;nan;99463.78;4976589;28;20340;-69
2022/06/15 08:34:15;;;;;;;4.27;3.90;;;;;;;30.85;nan;99463.88;4968298;28;20264;-69
2022/06/15 08:36:40;;;;;;;9.83;4.23;;;;;;;30.82;nan;99460.81;4973620;28;20573;-69
2022/06/15 08:39:06;;;;;;;6.87;4.80;;;;;;;30.64;nan;99450.84;4972330;28;20187;-69
2022/06/15 08:41:41;;;;;;;6.43;4.53;;;;;;;30.48;nan;99457.75;4987114;23;20295;-73
2022/06/15 08:44:06;;;;;;;4.37;3.90;;;;;;;30.16;nan;99455.25;4937060;29;20262;-74
2022/06/15 08:47:02;;;;;;;5.40;4.90;;;;;;;30.31;nan;99456.75;4942170;29;20437;-74
2022/06/15 08:49:42;;;;;;;4.20;3.87;;;;;;;30.33;nan;99452.75;4910493;29;20190;-73
2022/06/15 08:52:18;;;;;;;4.10;3.70;;;;;;;30.59;nan;99459.66;4945956;28;20510;-73
2022/06/15 08:54:51;;;;;;;5.37;4.10;;;;;;;30.78;nan;99456.88;4968257;28;20438;-74
2022/06/15 08:57:28;;;;;;;7.60;4.23;;;;;;;30.89;nan;99463.41;4952281;28;20792;-74
2022/06/15 09:00:15;;;;;;;4.30;3.80;;;;;;;30.91;nan;99466.72;4957720;28;20436;-74
2022/06/15 09:02:53;;;;;;;4.40;3.87;;;;;;;31.04;nan;99459.16;4968249;28;20459;-74
2022/06/15 09:05:50;;;;;;;5.87;4.17;;;;;;;31.01;nan;99462.34;4929480;29;20437;-74
2022/06/15 09:08:23;;;;;;;4.60;3.57;;;;;;;31.34;nan;99452.78;4960410;28;20435;-74
2022/06/15 09:11:13;;;;;;;3.50;3.20;;;;;;;31.44;nan;99446.81;4968368;28;20448;-74
2022/06/15 09:14:07;;;;;;;7.53;4.50;;;;;;;31.40;nan;99457.31;4930035;29;20631;-74
2022/06/15 09:16:47;;;;;;;4.37;3.80;;;;;;;31.38;nan;99454.03;4945104;28;21022;-73
2022/06/15 09:19:44;;;;;;;5.10;4.70;;;;;;;31.57;nan;99448.41;4950125;28;20942;-74
2022/06/15 09:22:16;;;;;;;4.10;3.80;;;;;;;31.65;nan;99456.19;4963746;28;21081;-74
2022/06/15 09:24:56;;;;;;;4.60;3.70;;;;;;;31.54;nan;99452.44;4967832;28;20961;-74
2022/06/15 09:27:36;;;;;;;3.73;3.43;;;;;;;31.60;nan;99447.97;4953494;28;20592;-74
2022/06/15 09:30:07;;;;;;;3.80;3.50;;;;;;;31.59;nan;99449.84;4967457;28;20427;-74
2022/06/15 09:32:38;;;;;;;4.63;3.87;;;;;;;31.54;nan;99447.00;4967294;28;20486;-73
2022/06/15 09:35:23;;;;;;;6.50;3.63;;;;;;;31.63;nan;99450.19;4967052;28;20810;-74
2022/06/15 09:37:53;;;;;;;4.90;4.13;;;;;;;31.83;nan;99453.31;4948134;28;20579;-74
2022/06/15 09:40:20;;;;;;;6.57;3.80;;;;;;;31.90;nan;99454.03;4957763;28;20534;-73
2022/06/15 09:43:07;;;;;;;4.43;4.03;;;;;;;32.12;nan;99446.06;4966929;28;20478;-74
2022/06/15 09:45:51;;;;;;;4.40;3.90;;;;;;;32.11;nan;99443.59;4964542;28;20462;-73
2022/06/15 09:48:31;;;;;;;3.50;3.03;;;;;;;32.20;nan;99444.84;4967245;28;20989;-74
2022/06/15 09:51:19;;;;;;;3.00;2.80;;;;;;;32.21;nan;99441.06;4965420;28;20495;-74
2022/06/15 09:53:54;;;;;;;2.80;2.60;;;;;;;32.25;nan;99435.97;4906657;29;20447;-74
2022/06/15 09:56:20;;;;;;;4.10;3.07;;;;;;;32.16;nan;99443.66;4906473;29;20545;-74
2022/06/15 09:58:46;;;;;;;7.43;4.10;;;;;;;32.25;nan;99435.97;4907667;29;20450;-74
2022/06/15 10:01:12;;;;;;;10.03;3.60;;;;;;;32.38;nan;99439.22;4905682;29;20454;-74
2022/06/15 10:03:44;;;;;;;3.73;2.83;;;;;;;32.38;nan;99436.50;4925829;29;20856;-74
2022/06/15 10:06:56;;;;;;;4.40;2.90;;;;;;;32.34;nan;99435.31;4918677;29;20464;-74
2022/06/15 10:09:27;;;;;;;3.50;3.20;;;;;;;32.31;nan;99435.00;4911541;29;20601;-74
2022/06/15 10:12:56;;;;;;;3.67;3.07;;;;;;;32.14;nan;99441.22;4925703;29;20475;-74
2022/06/15 10:14:49;;;;;;;2.90;2.60;;;;;;;32.29;nan;99427.06;4925755;29;20458;-74
2022/06/15 10:17:30;;;;;;;4.80;3.70;;;;;;;32.51;nan;99423.66;4923870;29;20580;-74
2022/06/15 10:19:58;;;;;;;3.50;3.20;;;;;;;32.78;nan;99427.41;4926359;29;20438;-74
2022/06/15 10:22:40;;;;;;;3.47;3.00;;;;;;;32.74;nan;99428.97;4925598;29;20449;-74
2022/06/15 10:25:14;;;;;;;4.07;3.03;;;;;;;32.56;nan;99431.91;4926158;29;20448;-74
2022/06/15 10:27:40;;;;;;;3.10;2.20;;;;;;;32.55;nan;99422.13;4909519;29;20688;-74
2022/06/15 10:30:12;;;;;;;3.20;2.87;;;;;;;32.65;nan;99425.03;4931433;28;20959;-74
2022/06/15 10:32:56;;;;;;;3.13;2.43;;;;;;;32.82;nan;99414.13;4970868;28;20188;-74
2022/06/15 10:35:21;;;;;;;2.90;2.70;;;;;;;32.95;nan;99413.78;4969996;28;21285;-74
2022/06/15 10:37:54;;;;;;;5.07;2.90;;;;;;;32.92;nan;99410.72;4969435;28;20549;-74
2022/06/15 10:40:29;;;;;;;2.70;2.50;;;;;;;32.89;nan;99414.75;4970033;28;20207;-73
2022/06/15 10:43:03;;;;;;;3.03;2.70;;;;;;;32.93;nan;99415.94;4970981;28;20455;-73
2022/06/15 10:45:35;;;;;;;2.47;2.30;;;;;;;33.05;nan;99411.25;4969392;28;20934;-73
2022/06/15 10:48:04;;;;;;;4.33;2.43;;;;;;;33.22;nan;99403.06;4969559;28;20420;-72
2022/06/15 10:50:32;;;;;;;2.40;1.80;;;;;;;33.15;nan;99405.13;4970921;28;20415;-73
2022/06/15 10:53:00;;;;;;;2.50;2.00;;;;;;;33.19;nan;99405.44;4970028;28;21244;-73
2022/06/15 11:03:47;;;;;;;2.63;2.33;;;;;;;33.27;nan;99394.13;4928602;29;20822;-74
2022/06/15 11:06:13;;;;;;;2.87;2.27;;;;;;;33.19;nan;99392.66;4931937;29;20449;-74
2022/06/15 11:08:44;;;;;;;2.87;2.50;;;;;;;33.11;nan;99395.81;4932170;29;20181;-73
2022/06/15 11:11:17;;;;;;;3.20;2.20;;;;;;;33.24;nan;99392.75;4933882;29;20731;-74
2022/06/15 11:13:53;;;;;;;2.50;2.30;;;;;;;33.35;nan;99396.44;4950655;28;20931;-74
2022/06/15 11:19:19;;;;;;;3.67;2.60;;;;;;;33.25;nan;99380.78;4931300;29;20464;-73
2022/06/15 11:21:53;;;;;;;3.00;2.60;;;;;;;33.17;nan;99386.66;4931957;29;20504;-74
2022/06/15 11:24:42;;;;;;;2.67;2.47;;;;;;;33.22;nan;99383.19;4942564;28;20543;-74
2022/06/15 11:27:29;;;;;;;2.20;2.00;;;;;;;33.21;nan;99381.50;4936024;28;21011;-74
2022/06/15 11:30:00;;;;;;;2.50;2.30;;;;;;;33.18;nan;99382.84;4932136;29;20437;-74
2022/06/15 11:32:34;;;;;;;3.43;2.10;;;;;;;33.09;nan;99375.38;4941915;29;20482;-74
2022/06/15 11:35:12;;;;;;;2.30;2.10;;;;;;;33.04;nan;99385.09;4950859;28;20420;-74
2022/06/15 11:37:53;;;;;;;2.83;2.20;;;;;;;32.97;nan;99383.59;4930969;29;20896;-74
2022/06/15 11:40:37;;;;;;;2.70;2.00;;;;;;;32.97;nan;99378.16;4930854;29;20433;-74
2022/06/15 11:43:12;;;;;;;3.03;1.60;;;;;;;33.02;nan;99375.53;4931149;29;20465;-74
2022/06/15 11:45:53;;;;;;;2.57;2.10;;;;;;;32.98;nan;99380.63;4931225;29;20454;-75
2022/06/15 11:48:43;;;;;;;3.23;2.23;;;;;;;32.95;nan;99375.69;4941240;28;20434;-73
2022/06/15 11:51:36;;;;;;;4.30;2.53;;;;;;;33.01;nan;99373.91;4930965;29;20445;-72
2022/06/15 11:54:07;;;;;;;3.13;1.93;;;;;;;32.98;nan;99372.47;4912457;29;20474;-73
2022/06/15 11:56:44;;;;;;;2.43;1.90;;;;;;;32.97;nan;99378.16;4922640;29;20508;-72
2022/06/15 11:59:25;;;;;;;2.23;1.73;;;;;;;32.93;nan;99371.56;4945985;29;20554;-73
2022/06/15 12:02:00;;;;;;;2.07;1.90;;;;;;;32.95;nan;99366.72;4911761;29;20434;-72
2022/06/15 12:04:39;;;;;;;4.00;1.93;;;;;;;33.08;nan;99368.25;4929547;29;21013;-72
2022/06/15 12:07:24;;;;;;;4.43;2.37;;;;;;;32.98;nan;99369.75;4935752;28;20432;-73
2022/06/15 12:10:12;;;;;;;2.83;2.07;;;;;;;32.74;nan;99368.31;4919180;29;20946;-73
2022/06/15 12:12:47;;;;;;;2.93;1.83;;;;;;;32.40;nan;99362.81;4949557;28;20488;-73
2022/06/15 12:15:47;;;;;;;2.30;1.90;;;;;;;32.40;nan;99358.22;4935657;28;20508;-73
2022/06/15 12:18:22;;;;;;;1.77;1.67;;;;;;;32.52;nan;99358.19;4923454;29;20835;-73
2022/06/15 12:21:14;;;;;;;2.93;2.03;;;;;;;32.56;nan;99361.22;4949565;28;20801;-73
2022/06/15 12:23:42;;;;;;;4.17;1.90;;;;;;;32.70;nan;99359.81;4932162;28;20433;-73
2022/06/15 12:26:33;;;;;;;4.00;2.07;;;;;;;32.79;nan;99358.31;4930608;29;20923;-74
2022/06/15 12:29:11;;;;;;;3.53;1.90;;;;;;;32.80;nan;99356.41;4930504;29;20773;-74
2022/06/15 12:31:48;;;;;;;2.27;2.07;;;;;;;32.79;nan;99362.94;4947014;29;20519;-74
2022/06/15 12:34:43;;;;;;;2.93;2.50;;;;;;;32.87;nan;99356.25;4944707;28;20540;-74
2022/06/15 12:37:39;;;;;;;3.20;2.30;;;;;;;32.89;nan;99359.53;4930543;29;20475;-74
2022/06/15 12:40:16;;;;;;;2.70;1.90;;;;;;;32.80;nan;99361.84;4911414;29;20470;-74
2022/06/15 12:42:46;;;;;;;2.70;1.70;;;;;;;32.79;nan;99354.78;4927808;29;20465;-74
2022/06/15 12:45:26;;;;;;;2.60;2.27;;;;;;;32.83;nan;99354.00;4949007;28;20428;-73
2022/06/15 12:47:59;;;;;;;4.13;1.93;;;;;;;32.90;nan;99353.84;4930874;29;20421;-73